Main page
METAR-TAF:

METAR-TAF

Airports :

Chios, Greece

Chios Island National Airport

latitude: 38-20N, longitude: 026-08E, elevation: 5 m

Current weather observation

The report was made 11 minutes ago, at 09:50 UTC
Wind 9 kt from the North/Northeast, varying between Northwest and East/Northeast
Temperature 19°C
Humidity 60%
Pressure 1018 hPa
Visibility 10 km or more
no clouds below 1500 m and no cumulonimbus

METAR: LGHI 190950Z 03009KT 310V070 CAVOK 19/11 Q1018

Time: 13:01 (10:01 UTC)

Forecast

The report was made 2 hours and 1 minutes ago, at 08:00 UTC
Forecast valid from 19 at 09 UTC to 19 at 18 UTC
Wind 12 kt from the North/Northeast
Visibility 10 km or more
Few clouds at a height of 2500 ft
Temporary
from 19 at 09 UTC to 19 at 18 UTC
Wind 12 kt from the North with gusts up to 22 kt

TAF: LGHI 190800Z 1909/1918 02012KT 9999 FEW025 TEMPO 1909/1918 01012G22KT

Weather observations and forecasts of more than 4000 airports (METAR and TAF reports).

The available stations are represented by yellow and red dots on the map.

Hover mouse over dot to see the name of the station.

Then click to see weather observations and forecasts.

To change the map : click on the green buttons with a black cross to zoom in, on the green button with a dash to zoom out, or on the green arrows for adjacent maps.


METAR-TAF: